sensor_id;sensor_type;location;lat;lon;timestamp;P1;durP1;ratioP1;P2;durP2;ratioP2
4389;SDS011;2209;48.982;8.406;2023-06-19T00:01:10;9.63;;;8.00;;
4389;SDS011;2209;48.982;8.406;2023-06-19T00:03:32;9.60;;;8.70;;
4389;SDS011;2209;48.982;8.406;2023-06-19T00:05:54;9.33;;;8.53;;
4389;SDS011;2209;48.982;8.406;2023-06-19T00:08:16;10.63;;;8.63;;
4389;SDS011;2209;48.982;8.406;2023-06-19T00:10:38;10.90;;;9.90;;
4389;SDS011;2209;48.982;8.406;2023-06-19T00:13:00;11.67;;;10.30;;
4389;SDS011;2209;48.982;8.406;2023-06-19T00:15:23;10.20;;;9.30;;
4389;SDS011;2209;48.982;8.406;2023-06-19T00:17:46;9.60;;;8.70;;
4389;SDS011;2209;48.982;8.406;2023-06-19T00:20:09;9.03;;;7.97;;
4389;SDS011;2209;48.982;8.406;2023-06-19T00:22:31;8.83;;;8.13;;
4389;SDS011;2209;48.982;8.406;2023-06-19T00:24:53;8.57;;;7.77;;
4389;SDS011;2209;48.982;8.406;2023-06-19T00:27:15;9.10;;;8.30;;
4389;SDS011;2209;48.982;8.406;2023-06-19T00:29:37;8.77;;;7.97;;
4389;SDS011;2209;48.982;8.406;2023-06-19T00:31:59;10.30;;;6.60;;
4389;SDS011;2209;48.982;8.406;2023-06-19T00:34:23;8.17;;;6.77;;
4389;SDS011;2209;48.982;8.406;2023-06-19T00:36:45;12.40;;;6.50;;
4389;SDS011;2209;48.982;8.406;2023-06-19T00:39:07;7.60;;;6.57;;
4389;SDS011;2209;48.982;8.406;2023-06-19T00:41:29;8.30;;;5.67;;
4389;SDS011;2209;48.982;8.406;2023-06-19T00:43:52;6.70;;;6.20;;
4389;SDS011;2209;48.982;8.406;2023-06-19T00:46:14;7.10;;;5.90;;
4389;SDS011;2209;48.982;8.406;2023-06-19T00:48:36;6.60;;;6.00;;
4389;SDS011;2209;48.982;8.406;2023-06-19T00:51:00;5.40;;;5.00;;
4389;SDS011;2209;48.982;8.406;2023-06-19T00:53:23;5.13;;;4.73;;
4389;SDS011;2209;48.982;8.406;2023-06-19T00:55:46;4.83;;;4.43;;
4389;SDS011;2209;48.982;8.406;2023-06-19T00:58:09;6.93;;;4.93;;
4389;SDS011;2209;48.982;8.406;2023-06-19T01:00:31;5.43;;;4.80;;
4389;SDS011;2209;48.982;8.406;2023-06-19T01:02:53;3.97;;;3.57;;
4389;SDS011;2209;48.982;8.406;2023-06-19T01:05:15;4.70;;;3.93;;
4389;SDS011;2209;48.982;8.406;2023-06-19T01:07:42;4.27;;;3.73;;
4389;SDS011;2209;48.982;8.406;2023-06-19T01:10:10;5.37;;;4.07;;
4389;SDS011;2209;48.982;8.406;2023-06-19T01:12:36;3.83;;;3.53;;
4389;SDS011;2209;48.982;8.406;2023-06-19T01:15:03;3.67;;;3.37;;
4389;SDS011;2209;48.982;8.406;2023-06-19T01:17:27;5.43;;;4.10;;
4389;SDS011;2209;48.982;8.406;2023-06-19T01:19:50;4.20;;;3.80;;
4389;SDS011;2209;48.982;8.406;2023-06-19T01:22:23;4.50;;;3.70;;
4389;SDS011;2209;48.982;8.406;2023-06-19T01:24:46;3.10;;;2.90;;
4389;SDS011;2209;48.982;8.406;2023-06-19T01:27:08;4.10;;;3.73;;
4389;SDS011;2209;48.982;8.406;2023-06-19T01:29:30;4.10;;;3.80;;
4389;SDS011;2209;48.982;8.406;2023-06-19T01:31:53;3.67;;;3.47;;
4389;SDS011;2209;48.982;8.406;2023-06-19T01:34:21;3.40;;;2.80;;
4389;SDS011;2209;48.982;8.406;2023-06-19T01:36:47;5.40;;;3.07;;
4389;SDS011;2209;48.982;8.406;2023-06-19T01:39:11;3.73;;;3.20;;
4389;SDS011;2209;48.982;8.406;2023-06-19T01:41:34;4.93;;;2.67;;
4389;SDS011;2209;48.982;8.406;2023-06-19T01:43:58;3.00;;;2.80;;
4389;SDS011;2209;48.982;8.406;2023-06-19T01:46:20;3.23;;;2.93;;
4389;SDS011;2209;48.982;8.406;2023-06-19T01:48:42;2.90;;;2.70;;
4389;SDS011;2209;48.982;8.406;2023-06-19T01:51:05;4.30;;;3.13;;
4389;SDS011;2209;48.982;8.406;2023-06-19T01:53:27;2.73;;;2.53;;
4389;SDS011;2209;48.982;8.406;2023-06-19T01:55:51;4.50;;;3.20;;
4389;SDS011;2209;48.982;8.406;2023-06-19T01:58:13;3.77;;;3.00;;
4389;SDS011;2209;48.982;8.406;2023-06-19T02:00:35;3.27;;;3.07;;
4389;SDS011;2209;48.982;8.406;2023-06-19T02:02:57;2.90;;;2.53;;
4389;SDS011;2209;48.982;8.406;2023-06-19T02:05:19;2.83;;;2.63;;
4389;SDS011;2209;48.982;8.406;2023-06-19T02:07:42;3.50;;;3.23;;
4389;SDS011;2209;48.982;8.406;2023-06-19T02:10:05;4.23;;;2.63;;
4389;SDS011;2209;48.982;8.406;2023-06-19T02:12:29;3.00;;;2.80;;
4389;SDS011;2209;48.982;8.406;2023-06-19T02:14:51;2.77;;;2.57;;
4389;SDS011;2209;48.982;8.406;2023-06-19T02:17:13;3.87;;;2.40;;
4389;SDS011;2209;48.982;8.406;2023-06-19T02:19:35;5.13;;;2.30;;
4389;SDS011;2209;48.982;8.406;2023-06-19T02:21:57;3.27;;;2.97;;
4389;SDS011;2209;48.982;8.406;2023-06-19T02:24:20;3.23;;;2.93;;
4389;SDS011;2209;48.982;8.406;2023-06-19T02:26:42;2.90;;;2.70;;
4389;SDS011;2209;48.982;8.406;2023-06-19T02:29:05;2.67;;;2.43;;
4389;SDS011;2209;48.982;8.406;2023-06-19T02:31:27;3.50;;;3.20;;
4389;SDS011;2209;48.982;8.406;2023-06-19T02:33:49;2.87;;;2.60;;
4389;SDS011;2209;48.982;8.406;2023-06-19T02:36:11;3.10;;;2.90;;
4389;SDS011;2209;48.982;8.406;2023-06-19T02:38:34;2.60;;;2.47;;
4389;SDS011;2209;48.982;8.406;2023-06-19T02:40:56;3.10;;;2.90;;
4389;SDS011;2209;48.982;8.406;2023-06-19T02:43:20;2.50;;;2.40;;
4389;SDS011;2209;48.982;8.406;2023-06-19T02:45:44;2.90;;;2.70;;
4389;SDS011;2209;48.982;8.406;2023-06-19T02:48:06;2.90;;;2.67;;
4389;SDS011;2209;48.982;8.406;2023-06-19T02:50:28;2.93;;;2.73;;
4389;SDS011;2209;48.982;8.406;2023-06-19T02:52:50;2.90;;;2.70;;
4389;SDS011;2209;48.982;8.406;2023-06-19T02:55:12;3.00;;;2.70;;
4389;SDS011;2209;48.982;8.406;2023-06-19T02:57:34;2.83;;;2.67;;
4389;SDS011;2209;48.982;8.406;2023-06-19T02:59:56;3.03;;;2.83;;
4389;SDS011;2209;48.982;8.406;2023-06-19T03:02:19;2.60;;;2.40;;
4389;SDS011;2209;48.982;8.406;2023-06-19T03:04:42;3.83;;;2.73;;
4389;SDS011;2209;48.982;8.406;2023-06-19T03:07:04;3.10;;;2.90;;
4389;SDS011;2209;48.982;8.406;2023-06-19T03:09:27;2.70;;;2.50;;
4389;SDS011;2209;48.982;8.406;2023-06-19T03:11:49;3.17;;;2.87;;
4389;SDS011;2209;48.982;8.406;2023-06-19T03:14:11;3.23;;;3.00;;
4389;SDS011;2209;48.982;8.406;2023-06-19T03:16:33;2.77;;;2.57;;
4389;SDS011;2209;48.982;8.406;2023-06-19T03:18:57;3.40;;;3.10;;
4389;SDS011;2209;48.982;8.406;2023-06-19T03:21:19;3.47;;;3.20;;
4389;SDS011;2209;48.982;8.406;2023-06-19T03:23:42;3.80;;;3.50;;
4389;SDS011;2209;48.982;8.406;2023-06-19T03:26:04;2.97;;;2.77;;
4389;SDS011;2209;48.982;8.406;2023-06-19T03:28:26;3.40;;;3.10;;
4389;SDS011;2209;48.982;8.406;2023-06-19T03:30:48;3.90;;;3.13;;
4389;SDS011;2209;48.982;8.406;2023-06-19T03:33:11;3.30;;;3.00;;
4389;SDS011;2209;48.982;8.406;2023-06-19T03:35:34;3.33;;;3.10;;
4389;SDS011;2209;48.982;8.406;2023-06-19T03:37:56;3.90;;;3.60;;
4389;SDS011;2209;48.982;8.406;2023-06-19T03:40:18;3.43;;;3.13;;
4389;SDS011;2209;48.982;8.406;2023-06-19T03:42:40;3.67;;;3.40;;
4389;SDS011;2209;48.982;8.406;2023-06-19T03:45:03;3.27;;;3.07;;
4389;SDS011;2209;48.982;8.406;2023-06-19T03:47:25;3.70;;;3.40;;
4389;SDS011;2209;48.982;8.406;2023-06-19T03:49:47;3.03;;;2.83;;
4389;SDS011;2209;48.982;8.406;2023-06-19T03:52:11;3.93;;;3.63;;
4389;SDS011;2209;48.982;8.406;2023-06-19T03:54:33;3.53;;;3.23;;
4389;SDS011;2209;48.982;8.406;2023-06-19T03:56:55;3.70;;;3.40;;
4389;SDS011;2209;48.982;8.406;2023-06-19T03:59:17;3.70;;;3.27;;
4389;SDS011;2209;48.982;8.406;2023-06-19T04:01:39;3.50;;;3.30;;
4389;SDS011;2209;48.982;8.406;2023-06-19T04:04:02;3.13;;;2.90;;
4389;SDS011;2209;48.982;8.406;2023-06-19T04:06:24;3.90;;;3.50;;
4389;SDS011;2209;48.982;8.406;2023-06-19T04:08:47;3.27;;;2.97;;
4389;SDS011;2209;48.982;8.406;2023-06-19T04:11:09;4.33;;;3.87;;
4389;SDS011;2209;48.982;8.406;2023-06-19T04:13:31;3.13;;;2.83;;
4389;SDS011;2209;48.982;8.406;2023-06-19T04:15:53;3.27;;;3.00;;
4389;SDS011;2209;48.982;8.406;2023-06-19T04:18:15;2.90;;;2.70;;
4389;SDS011;2209;48.982;8.406;2023-06-19T04:20:37;3.63;;;3.43;;
4389;SDS011;2209;48.982;8.406;2023-06-19T04:23:00;3.97;;;3.60;;
4389;SDS011;2209;48.982;8.406;2023-06-19T04:25:24;3.60;;;3.33;;
4389;SDS011;2209;48.982;8.406;2023-06-19T04:27:46;3.80;;;3.50;;
4389;SDS011;2209;48.982;8.406;2023-06-19T04:30:08;3.73;;;3.50;;
4389;SDS011;2209;48.982;8.406;2023-06-19T04:32:30;4.20;;;3.70;;
4389;SDS011;2209;48.982;8.406;2023-06-19T04:34:52;3.73;;;3.43;;
4389;SDS011;2209;48.982;8.406;2023-06-19T04:37:15;3.50;;;3.20;;
4389;SDS011;2209;48.982;8.406;2023-06-19T04:39:39;4.30;;;4.00;;
4389;SDS011;2209;48.982;8.406;2023-06-19T04:42:02;3.60;;;3.30;;
4389;SDS011;2209;48.982;8.406;2023-06-19T04:44:25;4.67;;;4.30;;
4389;SDS011;2209;48.982;8.406;2023-06-19T04:46:47;3.40;;;3.20;;
4389;SDS011;2209;48.982;8.406;2023-06-19T04:49:09;3.17;;;2.97;;
4389;SDS011;2209;48.982;8.406;2023-06-19T04:51:31;3.40;;;3.20;;
4389;SDS011;2209;48.982;8.406;2023-06-19T04:53:53;4.73;;;3.73;;
4389;SDS011;2209;48.982;8.406;2023-06-19T04:56:15;4.03;;;3.50;;
4389;SDS011;2209;48.982;8.406;2023-06-19T04:58:39;5.67;;;3.70;;
4389;SDS011;2209;48.982;8.406;2023-06-19T05:01:06;3.60;;;3.30;;
4389;SDS011;2209;48.982;8.406;2023-06-19T05:03:30;4.07;;;3.50;;
4389;SDS011;2209;48.982;8.406;2023-06-19T05:05:52;3.50;;;3.20;;
4389;SDS011;2209;48.982;8.406;2023-06-19T05:08:15;3.47;;;3.17;;
4389;SDS011;2209;48.982;8.406;2023-06-19T05:10:37;3.67;;;3.33;;
4389;SDS011;2209;48.982;8.406;2023-06-19T05:12:59;4.43;;;4.13;;
4389;SDS011;2209;48.982;8.406;2023-06-19T05:15:23;3.80;;;3.50;;
4389;SDS011;2209;48.982;8.406;2023-06-19T05:17:45;3.20;;;3.00;;
4389;SDS011;2209;48.982;8.406;2023-06-19T05:20:08;3.57;;;3.27;;
4389;SDS011;2209;48.982;8.406;2023-06-19T05:22:32;4.00;;;3.50;;
4389;SDS011;2209;48.982;8.406;2023-06-19T05:24:54;3.50;;;3.30;;
4389;SDS011;2209;48.982;8.406;2023-06-19T05:27:16;3.57;;;3.27;;
4389;SDS011;2209;48.982;8.406;2023-06-19T05:29:38;3.83;;;3.63;;
4389;SDS011;2209;48.982;8.406;2023-06-19T05:32:02;3.97;;;3.60;;
4389;SDS011;2209;48.982;8.406;2023-06-19T05:34:25;3.60;;;3.30;;
4389;SDS011;2209;48.982;8.406;2023-06-19T05:36:47;4.60;;;3.97;;
4389;SDS011;2209;48.982;8.406;2023-06-19T05:39:09;4.00;;;3.70;;
4389;SDS011;2209;48.982;8.406;2023-06-19T05:41:31;3.80;;;3.50;;
4389;SDS011;2209;48.982;8.406;2023-06-19T05:43:53;3.50;;;3.20;;
4389;SDS011;2209;48.982;8.406;2023-06-19T05:46:15;5.30;;;4.90;;
4389;SDS011;2209;48.982;8.406;2023-06-19T05:48:38;4.43;;;3.83;;
4389;SDS011;2209;48.982;8.406;2023-06-19T05:51:00;4.27;;;3.87;;
4389;SDS011;2209;48.982;8.406;2023-06-19T05:53:22;4.10;;;3.80;;
4389;SDS011;2209;48.982;8.406;2023-06-19T05:55:44;3.77;;;3.47;;
4389;SDS011;2209;48.982;8.406;2023-06-19T05:58:07;4.30;;;4.00;;
4389;SDS011;2209;48.982;8.406;2023-06-19T06:00:29;3.60;;;3.30;;
4389;SDS011;2209;48.982;8.406;2023-06-19T06:02:52;4.07;;;3.77;;
4389;SDS011;2209;48.982;8.406;2023-06-19T06:05:16;4.37;;;3.97;;
4389;SDS011;2209;48.982;8.406;2023-06-19T06:07:39;3.90;;;3.60;;
4389;SDS011;2209;48.982;8.406;2023-06-19T06:10:01;4.70;;;4.00;;
4389;SDS011;2209;48.982;8.406;2023-06-19T06:12:24;5.90;;;3.90;;
4389;SDS011;2209;48.982;8.406;2023-06-19T06:14:46;5.07;;;4.57;;
4389;SDS011;2209;48.982;8.406;2023-06-19T06:17:08;4.03;;;3.73;;
4389;SDS011;2209;48.982;8.406;2023-06-19T06:19:30;7.77;;;4.30;;
4389;SDS011;2209;48.982;8.406;2023-06-19T06:21:53;4.60;;;4.20;;
4389;SDS011;2209;48.982;8.406;2023-06-19T06:24:15;6.53;;;4.17;;
4389;SDS011;2209;48.982;8.406;2023-06-19T06:26:38;3.63;;;3.33;;
4389;SDS011;2209;48.982;8.406;2023-06-19T06:29:00;4.47;;;4.17;;
4389;SDS011;2209;48.982;8.406;2023-06-19T06:31:22;3.73;;;3.50;;
4389;SDS011;2209;48.982;8.406;2023-06-19T06:33:44;3.43;;;3.20;;
4389;SDS011;2209;48.982;8.406;2023-06-19T06:36:06;3.13;;;2.93;;
4389;SDS011;2209;48.982;8.406;2023-06-19T06:38:30;6.00;;;4.03;;
4389;SDS011;2209;48.982;8.406;2023-06-19T06:40:52;3.80;;;3.43;;
4389;SDS011;2209;48.982;8.406;2023-06-19T06:43:14;3.53;;;3.23;;
4389;SDS011;2209;48.982;8.406;2023-06-19T06:45:36;3.93;;;3.57;;
4389;SDS011;2209;48.982;8.406;2023-06-19T06:47:59;3.60;;;3.10;;
4389;SDS011;2209;48.982;8.406;2023-06-19T06:50:21;3.10;;;2.90;;
4389;SDS011;2209;48.982;8.406;2023-06-19T06:52:43;3.37;;;3.17;;
4389;SDS011;2209;48.982;8.406;2023-06-19T06:55:07;3.83;;;3.53;;
4389;SDS011;2209;48.982;8.406;2023-06-19T06:57:30;2.97;;;2.77;;
4389;SDS011;2209;48.982;8.406;2023-06-19T06:59:52;3.70;;;3.43;;
4389;SDS011;2209;48.982;8.406;2023-06-19T07:02:14;3.03;;;2.83;;
4389;SDS011;2209;48.982;8.406;2023-06-19T07:04:36;3.50;;;3.30;;
4389;SDS011;2209;48.982;8.406;2023-06-19T07:06:58;6.50;;;3.23;;
4389;SDS011;2209;48.982;8.406;2023-06-19T07:09:20;3.87;;;3.10;;
4389;SDS011;2209;48.982;8.406;2023-06-19T07:11:44;2.87;;;2.67;;
4389;SDS011;2209;48.982;8.406;2023-06-19T07:14:06;2.83;;;2.63;;
4389;SDS011;2209;48.982;8.406;2023-06-19T07:16:28;3.50;;;3.27;;
4389;SDS011;2209;48.982;8.406;2023-06-19T07:18:50;3.00;;;2.80;;
4389;SDS011;2209;48.982;8.406;2023-06-19T07:21:13;3.57;;;3.27;;
4389;SDS011;2209;48.982;8.406;2023-06-19T07:23:36;3.70;;;3.40;;
4389;SDS011;2209;48.982;8.406;2023-06-19T07:25:58;3.10;;;2.90;;
4389;SDS011;2209;48.982;8.406;2023-06-19T07:28:22;4.03;;;3.30;;
4389;SDS011;2209;48.982;8.406;2023-06-19T07:30:44;3.23;;;3.03;;
4389;SDS011;2209;48.982;8.406;2023-06-19T07:33:08;3.40;;;3.17;;
4389;SDS011;2209;48.982;8.406;2023-06-19T07:35:32;3.60;;;3.23;;
4389;SDS011;2209;48.982;8.406;2023-06-19T07:37:54;5.20;;;3.80;;
4389;SDS011;2209;48.982;8.406;2023-06-19T07:40:16;5.90;;;3.87;;
4389;SDS011;2209;48.982;8.406;2023-06-19T07:42:38;3.67;;;3.37;;
4389;SDS011;2209;48.982;8.406;2023-06-19T07:45:02;4.20;;;3.90;;
4389;SDS011;2209;48.982;8.406;2023-06-19T07:47:26;3.80;;;3.50;;
4389;SDS011;2209;48.982;8.406;2023-06-19T07:49:48;4.33;;;3.97;;
4389;SDS011;2209;48.982;8.406;2023-06-19T07:52:10;4.53;;;4.10;;
4389;SDS011;2209;48.982;8.406;2023-06-19T07:54:33;3.40;;;3.20;;
4389;SDS011;2209;48.982;8.406;2023-06-19T07:56:56;4.33;;;4.00;;
4389;SDS011;2209;48.982;8.406;2023-06-19T07:59:18;4.30;;;3.90;;
4389;SDS011;2209;48.982;8.406;2023-06-19T08:01:42;4.37;;;3.97;;
4389;SDS011;2209;48.982;8.406;2023-06-19T08:04:04;4.00;;;3.50;;
4389;SDS011;2209;48.982;8.406;2023-06-19T08:06:27;3.93;;;3.63;;
4389;SDS011;2209;48.982;8.406;2023-06-19T08:08:49;6.37;;;4.03;;
4389;SDS011;2209;48.982;8.406;2023-06-19T08:11:12;4.07;;;3.77;;
4389;SDS011;2209;48.982;8.406;2023-06-19T08:13:34;4.70;;;4.30;;
4389;SDS011;2209;48.982;8.406;2023-06-19T08:15:56;5.60;;;4.63;;
4389;SDS011;2209;48.982;8.406;2023-06-19T08:18:19;4.90;;;4.37;;
4389;SDS011;2209;48.982;8.406;2023-06-19T08:20:41;6.83;;;5.10;;
4389;SDS011;2209;48.982;8.406;2023-06-19T08:23:03;4.60;;;4.20;;
4389;SDS011;2209;48.982;8.406;2023-06-19T08:25:25;5.00;;;4.60;;
4389;SDS011;2209;48.982;8.406;2023-06-19T08:27:47;5.83;;;5.20;;
4389;SDS011;2209;48.982;8.406;2023-06-19T08:30:09;4.73;;;4.33;;
4389;SDS011;2209;48.982;8.406;2023-06-19T08:32:32;4.70;;;4.30;;
4389;SDS011;2209;48.982;8.406;2023-06-19T08:34:56;4.63;;;4.33;;
4389;SDS011;2209;48.982;8.406;2023-06-19T08:37:18;5.27;;;4.80;;
4389;SDS011;2209;48.982;8.406;2023-06-19T08:39:40;4.87;;;4.47;;
4389;SDS011;2209;48.982;8.406;2023-06-19T08:42:02;4.80;;;4.50;;
4389;SDS011;2209;48.982;8.406;2023-06-19T08:44:25;5.47;;;4.90;;
4389;SDS011;2209;48.982;8.406;2023-06-19T08:46:47;5.03;;;4.63;;
4389;SDS011;2209;48.982;8.406;2023-06-19T08:49:09;5.30;;;4.80;;
4389;SDS011;2209;48.982;8.406;2023-06-19T08:51:33;9.70;;;4.50;;
4389;SDS011;2209;48.982;8.406;2023-06-19T08:53:55;5.93;;;5.00;;
4389;SDS011;2209;48.982;8.406;2023-06-19T08:56:22;5.13;;;4.63;;
4389;SDS011;2209;48.982;8.406;2023-06-19T08:58:44;6.70;;;4.57;;
4389;SDS011;2209;48.982;8.406;2023-06-19T09:01:06;4.60;;;4.20;;
4389;SDS011;2209;48.982;8.406;2023-06-19T09:03:29;5.20;;;4.40;;
4389;SDS011;2209;48.982;8.406;2023-06-19T09:05:51;9.33;;;4.30;;
4389;SDS011;2209;48.982;8.406;2023-06-19T09:08:14;6.17;;;5.63;;
4389;SDS011;2209;48.982;8.406;2023-06-19T09:10:37;5.77;;;5.23;;
4389;SDS011;2209;48.982;8.406;2023-06-19T09:12:59;5.80;;;5.23;;
4389;SDS011;2209;48.982;8.406;2023-06-19T09:15:22;4.67;;;4.37;;
4389;SDS011;2209;48.982;8.406;2023-06-19T09:17:44;5.23;;;4.83;;
4389;SDS011;2209;48.982;8.406;2023-06-19T09:20:06;5.13;;;4.63;;
4389;SDS011;2209;48.982;8.406;2023-06-19T09:22:32;11.40;;;6.17;;
4389;SDS011;2209;48.982;8.406;2023-06-19T09:24:59;5.93;;;4.97;;
4389;SDS011;2209;48.982;8.406;2023-06-19T09:27:22;6.77;;;5.00;;
4389;SDS011;2209;48.982;8.406;2023-06-19T09:29:44;5.70;;;5.20;;
4389;SDS011;2209;48.982;8.406;2023-06-19T09:32:14;7.07;;;5.60;;
4389;SDS011;2209;48.982;8.406;2023-06-19T09:34:36;5.60;;;5.00;;
4389;SDS011;2209;48.982;8.406;2023-06-19T09:36:59;4.93;;;4.43;;
4389;SDS011;2209;48.982;8.406;2023-06-19T09:39:21;6.10;;;5.60;;
4389;SDS011;2209;48.982;8.406;2023-06-19T09:41:49;5.80;;;5.40;;
4389;SDS011;2209;48.982;8.406;2023-06-19T09:44:13;6.40;;;5.80;;
4389;SDS011;2209;48.982;8.406;2023-06-19T09:46:36;5.23;;;4.83;;
4389;SDS011;2209;48.982;8.406;2023-06-19T09:49:00;5.43;;;5.03;;
4389;SDS011;2209;48.982;8.406;2023-06-19T09:51:29;6.07;;;5.53;;
4389;SDS011;2209;48.982;8.406;2023-06-19T09:53:52;5.43;;;4.97;;
4389;SDS011;2209;48.982;8.406;2023-06-19T09:56:16;5.40;;;4.57;;
4389;SDS011;2209;48.982;8.406;2023-06-19T09:58:43;6.00;;;5.50;;
4389;SDS011;2209;48.982;8.406;2023-06-19T10:01:06;6.50;;;5.90;;
4389;SDS011;2209;48.982;8.406;2023-06-19T10:03:31;4.73;;;4.37;;
4389;SDS011;2209;48.982;8.406;2023-06-19T10:05:56;6.07;;;5.43;;
4389;SDS011;2209;48.982;8.406;2023-06-19T10:08:26;5.03;;;4.57;;
4389;SDS011;2209;48.982;8.406;2023-06-19T10:10:49;8.33;;;4.73;;
4389;SDS011;2209;48.982;8.406;2023-06-19T10:13:12;7.53;;;5.00;;
4389;SDS011;2209;48.982;8.406;2023-06-19T10:15:39;5.10;;;4.70;;
4389;SDS011;2209;48.982;8.406;2023-06-19T10:18:03;5.33;;;4.93;;
4389;SDS011;2209;48.982;8.406;2023-06-19T10:20:27;4.17;;;3.87;;
4389;SDS011;2209;48.982;8.406;2023-06-19T10:22:52;4.70;;;4.30;;
4389;SDS011;2209;48.982;8.406;2023-06-19T10:25:21;5.40;;;4.70;;
4389;SDS011;2209;48.982;8.406;2023-06-19T10:27:43;5.07;;;4.67;;
4389;SDS011;2209;48.982;8.406;2023-06-19T10:30:06;6.00;;;5.50;;
4389;SDS011;2209;48.982;8.406;2023-06-19T10:32:40;6.30;;;5.03;;
4389;SDS011;2209;48.982;8.406;2023-06-19T10:35:10;4.60;;;4.30;;
4389;SDS011;2209;48.982;8.406;2023-06-19T10:37:32;7.50;;;5.37;;
4389;SDS011;2209;48.982;8.406;2023-06-19T10:39:54;5.47;;;5.00;;
4389;SDS011;2209;48.982;8.406;2023-06-19T10:42:16;7.77;;;5.40;;
4389;SDS011;2209;48.982;8.406;2023-06-19T10:44:39;6.20;;;5.67;;
4389;SDS011;2209;48.982;8.406;2023-06-19T10:47:02;5.07;;;4.77;;
4389;SDS011;2209;48.982;8.406;2023-06-19T10:49:26;5.23;;;4.83;;
4389;SDS011;2209;48.982;8.406;2023-06-19T10:51:48;5.53;;;5.10;;
4389;SDS011;2209;48.982;8.406;2023-06-19T10:54:11;5.27;;;4.77;;
4389;SDS011;2209;48.982;8.406;2023-06-19T10:56:33;6.37;;;5.60;;
4389;SDS011;2209;48.982;8.406;2023-06-19T10:58:59;5.73;;;5.23;;
4389;SDS011;2209;48.982;8.406;2023-06-19T11:01:22;5.70;;;5.20;;
4389;SDS011;2209;48.982;8.406;2023-06-19T11:03:45;5.97;;;5.43;;
4389;SDS011;2209;48.982;8.406;2023-06-19T11:06:08;5.50;;;5.00;;
4389;SDS011;2209;48.982;8.406;2023-06-19T11:08:30;6.03;;;5.53;;
4389;SDS011;2209;48.982;8.406;2023-06-19T11:10:52;5.80;;;5.20;;
4389;SDS011;2209;48.982;8.406;2023-06-19T11:13:15;6.40;;;5.57;;
4389;SDS011;2209;48.982;8.406;2023-06-19T11:15:38;5.83;;;5.33;;
4389;SDS011;2209;48.982;8.406;2023-06-19T11:18:00;5.70;;;5.20;;
4389;SDS011;2209;48.982;8.406;2023-06-19T11:20:23;6.93;;;5.10;;
4389;SDS011;2209;48.982;8.406;2023-06-19T11:22:53;5.53;;;5.13;;
4389;SDS011;2209;48.982;8.406;2023-06-19T11:25:16;5.50;;;5.10;;
4389;SDS011;2209;48.982;8.406;2023-06-19T11:27:39;5.83;;;4.60;;
4389;SDS011;2209;48.982;8.406;2023-06-19T11:30:01;7.33;;;5.20;;
4389;SDS011;2209;48.982;8.406;2023-06-19T11:32:29;6.87;;;4.83;;
4389;SDS011;2209;48.982;8.406;2023-06-19T11:34:53;5.60;;;5.10;;
4389;SDS011;2209;48.982;8.406;2023-06-19T11:37:15;5.30;;;4.80;;
4389;SDS011;2209;48.982;8.406;2023-06-19T11:39:40;5.33;;;4.83;;
4389;SDS011;2209;48.982;8.406;2023-06-19T11:42:05;10.70;;;5.30;;
4389;SDS011;2209;48.982;8.406;2023-06-19T11:44:27;5.53;;;5.03;;
4389;SDS011;2209;48.982;8.406;2023-06-19T11:46:49;5.20;;;4.70;;
4389;SDS011;2209;48.982;8.406;2023-06-19T11:49:12;4.37;;;4.07;;
4389;SDS011;2209;48.982;8.406;2023-06-19T11:51:37;5.87;;;4.90;;
4389;SDS011;2209;48.982;8.406;2023-06-19T11:53:59;5.20;;;4.80;;
4389;SDS011;2209;48.982;8.406;2023-06-19T11:56:24;5.90;;;5.40;;
4389;SDS011;2209;48.982;8.406;2023-06-19T11:58:46;5.43;;;4.93;;
4389;SDS011;2209;48.982;8.406;2023-06-19T12:01:09;6.57;;;5.67;;
4389;SDS011;2209;48.982;8.406;2023-06-19T12:03:31;5.70;;;5.20;;
4389;SDS011;2209;48.982;8.406;2023-06-19T12:05:53;6.40;;;5.80;;
4389;SDS011;2209;48.982;8.406;2023-06-19T12:08:15;9.90;;;5.93;;
4389;SDS011;2209;48.982;8.406;2023-06-19T12:10:37;5.80;;;5.10;;
4389;SDS011;2209;48.982;8.406;2023-06-19T12:13:00;5.97;;;4.90;;
4389;SDS011;2209;48.982;8.406;2023-06-19T12:15:24;5.90;;;5.40;;
4389;SDS011;2209;48.982;8.406;2023-06-19T12:17:46;5.70;;;5.20;;
4389;SDS011;2209;48.982;8.406;2023-06-19T12:20:09;4.90;;;4.60;;
4389;SDS011;2209;48.982;8.406;2023-06-19T12:22:34;5.53;;;5.07;;
4389;SDS011;2209;48.982;8.406;2023-06-19T12:24:56;9.57;;;5.83;;
4389;SDS011;2209;48.982;8.406;2023-06-19T12:27:18;5.23;;;4.83;;
4389;SDS011;2209;48.982;8.406;2023-06-19T12:29:42;5.67;;;5.17;;
4389;SDS011;2209;48.982;8.406;2023-06-19T12:32:04;5.73;;;5.17;;
4389;SDS011;2209;48.982;8.406;2023-06-19T12:34:27;5.30;;;4.90;;
4389;SDS011;2209;48.982;8.406;2023-06-19T12:36:49;5.30;;;4.80;;
4389;SDS011;2209;48.982;8.406;2023-06-19T12:39:11;5.53;;;4.60;;
4389;SDS011;2209;48.982;8.406;2023-06-19T12:41:35;5.20;;;4.80;;
4389;SDS011;2209;48.982;8.406;2023-06-19T12:43:57;5.60;;;5.13;;
4389;SDS011;2209;48.982;8.406;2023-06-19T12:46:20;5.10;;;4.80;;
4389;SDS011;2209;48.982;8.406;2023-06-19T12:48:42;5.30;;;4.90;;
4389;SDS011;2209;48.982;8.406;2023-06-19T12:51:04;6.00;;;5.47;;
4389;SDS011;2209;48.982;8.406;2023-06-19T12:53:26;8.13;;;6.57;;
4389;SDS011;2209;48.982;8.406;2023-06-19T12:55:50;6.07;;;5.03;;
4389;SDS011;2209;48.982;8.406;2023-06-19T12:58:12;5.80;;;5.30;;
4389;SDS011;2209;48.982;8.406;2023-06-19T13:00:34;5.30;;;4.90;;
4389;SDS011;2209;48.982;8.406;2023-06-19T13:02:57;6.20;;;5.20;;
4389;SDS011;2209;48.982;8.406;2023-06-19T13:05:19;5.07;;;4.67;;
4389;SDS011;2209;48.982;8.406;2023-06-19T13:07:41;7.90;;;4.60;;
4389;SDS011;2209;48.982;8.406;2023-06-19T13:10:04;4.73;;;4.33;;
4389;SDS011;2209;48.982;8.406;2023-06-19T13:12:26;4.90;;;4.50;;
4389;SDS011;2209;48.982;8.406;2023-06-19T13:14:48;7.47;;;5.40;;
4389;SDS011;2209;48.982;8.406;2023-06-19T13:17:10;5.70;;;5.30;;
4389;SDS011;2209;48.982;8.406;2023-06-19T13:19:35;3.90;;;3.60;;
4389;SDS011;2209;48.982;8.406;2023-06-19T13:21:57;5.53;;;5.03;;
4389;SDS011;2209;48.982;8.406;2023-06-19T13:24:19;5.10;;;4.60;;
4389;SDS011;2209;48.982;8.406;2023-06-19T13:26:42;5.50;;;5.10;;
4389;SDS011;2209;48.982;8.406;2023-06-19T13:29:05;5.23;;;4.83;;
4389;SDS011;2209;48.982;8.406;2023-06-19T13:31:27;5.57;;;5.07;;
4389;SDS011;2209;48.982;8.406;2023-06-19T13:33:49;4.90;;;4.50;;
4389;SDS011;2209;48.982;8.406;2023-06-19T13:36:12;6.13;;;4.73;;
4389;SDS011;2209;48.982;8.406;2023-06-19T13:38:34;4.57;;;4.17;;
4389;SDS011;2209;48.982;8.406;2023-06-19T13:40:57;6.90;;;4.10;;
4389;SDS011;2209;48.982;8.406;2023-06-19T13:43:19;5.87;;;5.43;;
4389;SDS011;2209;48.982;8.406;2023-06-19T13:45:43;4.77;;;4.40;;
4389;SDS011;2209;48.982;8.406;2023-06-19T13:48:05;4.87;;;4.57;;
4389;SDS011;2209;48.982;8.406;2023-06-19T13:50:28;4.97;;;4.57;;
4389;SDS011;2209;48.982;8.406;2023-06-19T13:52:51;5.53;;;5.00;;
4389;SDS011;2209;48.982;8.406;2023-06-19T13:55:14;5.53;;;5.07;;
4389;SDS011;2209;48.982;8.406;2023-06-19T13:57:37;4.90;;;4.60;;
4389;SDS011;2209;48.982;8.406;2023-06-19T14:00:00;4.10;;;3.90;;
4389;SDS011;2209;48.982;8.406;2023-06-19T14:02:23;5.03;;;4.63;;
4389;SDS011;2209;48.982;8.406;2023-06-19T14:04:45;5.50;;;5.10;;
4389;SDS011;2209;48.982;8.406;2023-06-19T14:07:07;5.53;;;5.10;;
4389;SDS011;2209;48.982;8.406;2023-06-19T14:09:30;4.97;;;4.67;;
4389;SDS011;2209;48.982;8.406;2023-06-19T14:11:52;4.33;;;4.03;;
4389;SDS011;2209;48.982;8.406;2023-06-19T14:14:15;5.33;;;4.93;;
4389;SDS011;2209;48.982;8.406;2023-06-19T14:16:37;7.50;;;4.50;;
4389;SDS011;2209;48.982;8.406;2023-06-19T14:18:59;5.00;;;4.70;;
4389;SDS011;2209;48.982;8.406;2023-06-19T14:21:21;5.00;;;4.50;;
4389;SDS011;2209;48.982;8.406;2023-06-19T14:23:43;8.10;;;4.10;;
4389;SDS011;2209;48.982;8.406;2023-06-19T14:26:07;4.40;;;4.10;;
4389;SDS011;2209;48.982;8.406;2023-06-19T14:28:29;6.17;;;4.57;;
4389;SDS011;2209;48.982;8.406;2023-06-19T14:30:51;4.40;;;4.10;;
4389;SDS011;2209;48.982;8.406;2023-06-19T14:33:13;4.67;;;4.27;;
4389;SDS011;2209;48.982;8.406;2023-06-19T14:35:36;6.50;;;5.07;;
4389;SDS011;2209;48.982;8.406;2023-06-19T14:37:58;5.80;;;5.30;;
4389;SDS011;2209;48.982;8.406;2023-06-19T14:40:20;5.53;;;5.00;;
4389;SDS011;2209;48.982;8.406;2023-06-19T14:42:43;5.43;;;4.93;;
4389;SDS011;2209;48.982;8.406;2023-06-19T14:45:06;5.27;;;4.77;;
4389;SDS011;2209;48.982;8.406;2023-06-19T14:47:29;6.27;;;4.40;;